Main page
METAR-TAF:

METAR-TAF

Airports :

Olive Branch Airport

Olive Branch, Mississippi, United States

latitude: 34-58-44N, longitude: 089-47-13W, elevation: 400 ft

Current weather observation

The report was made 12 minutes ago, at 09:55 UTC
Calm wind
Temperature 41°F
Humidity 70%
Pressure 30.20 in. Hg
Visibility: 10 miles
Few clouds at a height of 5500 ft
Overcast at a height of 7500 ft

METAR: KOLV 230955Z AUTO 00000KT 10SM FEW055 OVC075 05/M00 A3020 RMK A01

Time: 04:07 (10:07 UTC)


TAF: missing

Weather observations and forecasts of more than 4000 airports (METAR and TAF reports).

The available stations are represented by yellow and red dots on the map.

Hover mouse over dot to see the name of the station.

Then click to see weather observations and forecasts.

To change the map : click on the green buttons with a black cross to zoom in, on the green button with a dash to zoom out, or on the green arrows for adjacent maps.


METAR-TAF: